createdAt,value
2019-05-07T00:03:08.057Z,17.37
2019-05-07T00:05:39.030Z,18.48
2019-05-07T00:08:08.390Z,18.00
2019-05-07T00:10:37.714Z,19.00
2019-05-07T00:13:19.687Z,17.65
2019-05-07T00:15:49.009Z,16.40
2019-05-07T00:18:18.347Z,20.20
2019-05-07T00:20:47.695Z,18.37
2019-05-07T00:23:17.015Z,19.60
2019-05-07T00:25:58.684Z,19.70
2019-05-07T00:28:28.029Z,18.75
2019-05-07T00:30:57.374Z,19.95
2019-05-07T00:33:26.719Z,18.95
2019-05-07T00:39:45.070Z,18.85
2019-05-07T00:45:42.626Z,17.95
2019-05-07T00:51:45.786Z,17.77
2019-05-07T00:54:15.194Z,17.70
2019-05-07T00:56:44.545Z,19.20
2019-05-07T00:59:13.891Z,17.20
2019-05-07T01:01:43.418Z,17.17
2019-05-07T01:04:12.769Z,19.35
2019-05-07T01:06:42.491Z,18.20
2019-05-07T01:09:18.365Z,18.37
2019-05-07T01:11:47.707Z,18.42
2019-05-07T01:14:17.043Z,19.73
2019-05-07T01:16:52.963Z,17.95
2019-05-07T01:19:28.656Z,19.48
2019-05-07T01:21:58.014Z,18.20
2019-05-07T01:24:27.356Z,17.92
2019-05-07T01:26:56.697Z,20.55
2019-05-07T01:29:26.380Z,18.60
2019-05-07T01:32:14.896Z,19.42
2019-05-07T01:35:03.374Z,20.23
2019-05-07T01:37:32.728Z,18.73
2019-05-07T01:40:03.094Z,19.17
2019-05-07T01:42:52.995Z,19.65
2019-05-07T01:45:42.232Z,20.30
2019-05-07T01:48:08.551Z,20.65
2019-05-07T01:50:38.056Z,21.27
2019-05-07T01:53:07.395Z,20.57
2019-05-07T01:55:36.748Z,19.85
2019-05-07T01:58:06.079Z,20.10
2019-05-07T02:00:35.650Z,19.30
2019-05-07T02:03:24.486Z,20.90
2019-05-07T02:06:13.260Z,20.85
2019-05-07T02:09:02.357Z,21.50
2019-05-07T02:11:52.767Z,19.35
2019-05-07T02:14:42.259Z,20.62
2019-05-07T02:17:17.749Z,21.52
2019-05-07T02:19:47.087Z,20.62
2019-05-07T02:22:16.516Z,21.12
2019-05-07T02:24:45.868Z,20.10
2019-05-07T02:27:15.218Z,20.85
2019-05-07T02:29:44.555Z,20.55
2019-05-07T02:32:13.909Z,23.22
2019-05-07T02:34:44.159Z,20.00
2019-05-07T02:40:44.133Z,20.75
2019-05-07T02:43:14.222Z,24.27
2019-05-07T02:46:25.575Z,23.20
2019-05-07T02:49:05.511Z,22.52
2019-05-07T02:51:53.988Z,22.95
2019-05-07T02:57:23.812Z,22.75
2019-05-07T03:00:04.022Z,23.85
2019-05-07T03:02:36.838Z,24.87
2019-05-07T03:08:08.514Z,21.95
2019-05-07T03:10:37.843Z,22.93
2019-05-07T03:13:07.184Z,24.52
2019-05-07T03:15:36.548Z,23.57
2019-05-07T03:18:06.113Z,24.50
2019-05-07T03:21:15.297Z,26.10
2019-05-07T03:24:04.010Z,28.10
2019-05-07T03:32:28.726Z,27.27
2019-05-07T03:35:17.289Z,27.45
2019-05-07T03:37:46.689Z,27.22
2019-05-07T03:40:16.376Z,28.10
2019-05-07T03:42:45.715Z,26.75
2019-05-07T03:50:52.909Z,26.90
2019-05-07T03:53:43.520Z,26.12
2019-05-07T03:56:18.068Z,27.22
2019-05-07T03:58:47.412Z,27.35
2019-05-07T04:01:16.762Z,27.95
2019-05-07T04:03:46.117Z,28.45
2019-05-07T04:06:15.450Z,27.13
2019-05-07T04:08:44.792Z,27.48
2019-05-07T04:11:14.307Z,27.65
2019-05-07T04:13:44.248Z,25.05
2019-05-07T04:16:20.230Z,25.20
2019-05-07T04:18:52.819Z,26.60
2019-05-07T04:21:43.302Z,25.20
2019-05-07T04:29:53.402Z,27.62
2019-05-07T04:36:14.217Z,26.60
2019-05-07T04:38:48.490Z,24.80
2019-05-07T04:41:17.843Z,28.02
2019-05-07T04:44:06.521Z,26.97
2019-05-07T04:46:35.874Z,25.25
2019-05-07T04:49:05.284Z,28.60
2019-05-07T04:51:53.750Z,27.62
2019-05-07T04:54:23.830Z,28.73
2019-05-07T04:56:59.798Z,25.43
2019-05-07T04:59:29.141Z,27.35
2019-05-07T05:02:00.142Z,28.50
2019-05-07T05:04:34.045Z,28.70
2019-05-07T05:07:02.639Z,26.73
2019-05-07T05:09:32.881Z,29.20
2019-05-07T05:12:02.915Z,28.20
2019-05-07T05:14:33.869Z,30.85
2019-05-07T05:17:03.516Z,28.52
2019-05-07T05:19:32.796Z,30.50
2019-05-07T05:22:03.793Z,26.90
2019-05-07T05:24:34.700Z,27.98
2019-05-07T05:27:04.119Z,26.85
2019-05-07T05:29:35.238Z,25.12
2019-05-07T05:32:04.853Z,26.60
2019-05-07T05:34:34.180Z,26.10
2019-05-07T05:37:03.510Z,27.47
2019-05-07T05:39:32.872Z,26.85
2019-05-07T05:42:12.827Z,26.37
2019-05-07T05:44:42.187Z,26.80
2019-05-07T05:47:12.027Z,26.90
2019-05-07T05:49:42.866Z,24.00
2019-05-07T05:52:13.925Z,24.67
2019-05-07T05:54:44.901Z,23.90
2019-05-07T05:57:18.546Z,22.20
2019-05-07T05:59:55.670Z,25.67
2019-05-07T06:02:44.034Z,27.00
2019-05-07T06:05:34.380Z,25.60
2019-05-07T06:08:20.606Z,28.17
2019-05-07T06:10:51.954Z,26.10
2019-05-07T06:13:23.181Z,25.93
2019-05-07T06:15:56.919Z,26.00
2019-05-07T06:18:42.940Z,26.00
2019-05-07T06:21:14.556Z,25.83
2019-05-07T06:23:57.377Z,24.80
2019-05-07T06:26:26.765Z,26.83
2019-05-07T06:28:56.042Z,26.00
2019-05-07T06:31:25.434Z,25.60
2019-05-07T06:33:54.955Z,27.70
2019-05-07T06:36:24.283Z,24.30
2019-05-07T06:38:55.261Z,26.70
2019-05-07T06:41:42.445Z,24.63
2019-05-07T06:44:13.421Z,26.27
2019-05-07T06:46:42.750Z,23.20
2019-05-07T06:49:12.699Z,23.90
2019-05-07T06:51:42.169Z,25.03
2019-05-07T06:54:12.990Z,25.47
2019-05-07T06:56:42.694Z,25.90
2019-05-07T06:59:14.203Z,23.70
2019-05-07T07:01:47.652Z,24.53
2019-05-07T07:04:18.615Z,25.27
2019-05-07T07:06:49.601Z,25.73
2019-05-07T07:09:26.244Z,23.70
2019-05-07T07:12:03.229Z,24.80
2019-05-07T07:14:33.303Z,24.23
2019-05-07T07:17:02.706Z,24.13
2019-05-07T07:19:34.202Z,25.03
2019-05-07T07:22:03.067Z,23.43
2019-05-07T07:24:32.992Z,22.40
2019-05-07T07:27:02.535Z,21.43
2019-05-07T07:29:44.980Z,21.23
2019-05-07T07:32:15.174Z,23.37
2019-05-07T07:34:49.237Z,22.50
2019-05-07T07:37:23.184Z,22.47
2019-05-07T07:39:54.160Z,23.53
2019-05-07T07:42:23.504Z,24.80
2019-05-07T07:44:54.804Z,23.03
2019-05-07T07:47:24.150Z,21.80
2019-05-07T07:49:53.484Z,23.37
2019-05-07T07:52:23.053Z,23.07
2019-05-07T07:54:52.995Z,22.60
2019-05-07T07:57:42.775Z,24.47
2019-05-07T08:00:32.866Z,22.70
2019-05-07T08:03:02.997Z,23.43
2019-05-07T08:05:32.621Z,21.17
2019-05-07T08:08:02.370Z,22.10
2019-05-07T08:10:32.658Z,19.80
2019-05-07T08:13:02.292Z,22.10
2019-05-07T08:15:33.047Z,21.90
2019-05-07T08:18:02.948Z,21.70
2019-05-07T08:20:32.834Z,22.67
2019-05-07T08:23:02.895Z,22.70
2019-05-07T08:25:34.024Z,23.00
2019-05-07T08:28:03.358Z,21.40
2019-05-07T08:30:33.066Z,21.73
2019-05-07T08:33:04.056Z,21.00
2019-05-07T08:35:34.965Z,21.70
2019-05-07T08:38:04.304Z,18.13
2019-05-07T08:40:33.707Z,19.10
2019-05-07T08:43:03.360Z,19.57
2019-05-07T08:45:52.239Z,19.30
2019-05-07T08:48:34.392Z,17.90
2019-05-07T08:51:03.723Z,18.13
2019-05-07T08:53:33.062Z,16.57
2019-05-07T08:56:03.281Z,16.90
2019-05-07T08:58:32.617Z,18.90
2019-05-07T09:01:03.114Z,17.80
2019-05-07T09:03:44.793Z,19.13
2019-05-07T09:06:14.601Z,17.80
2019-05-07T09:08:43.910Z,17.90
2019-05-07T09:11:13.490Z,18.47
2019-05-07T09:13:42.870Z,17.20
2019-05-07T09:16:12.885Z,16.60
2019-05-07T09:18:42.903Z,15.70
2019-05-07T09:21:12.810Z,16.90
2019-05-07T09:23:42.497Z,15.53
2019-05-07T09:26:13.617Z,15.63
2019-05-07T09:28:47.839Z,15.00
2019-05-07T09:31:19.076Z,15.40
2019-05-07T09:33:52.124Z,15.80
2019-05-07T09:36:22.885Z,15.40
2019-05-07T09:38:56.767Z,15.83
2019-05-07T09:41:28.669Z,14.87
2019-05-07T09:43:58.796Z,15.63
2019-05-07T09:46:28.273Z,15.70
2019-05-07T09:48:57.611Z,15.73
2019-05-07T09:51:26.873Z,14.50
2019-05-07T09:53:56.218Z,14.80
2019-05-07T09:56:25.547Z,14.03
2019-05-07T09:58:55.331Z,12.93
2019-05-07T10:01:24.693Z,14.40
2019-05-07T10:03:54.019Z,13.23
2019-05-07T10:06:23.439Z,13.30
2019-05-07T10:08:52.857Z,13.97
2019-05-07T10:11:39.161Z,14.47
2019-05-07T10:14:14.486Z,13.70
2019-05-07T10:16:48.042Z,13.17
2019-05-07T10:19:17.445Z,13.93
2019-05-07T10:21:46.841Z,14.93
2019-05-07T10:24:16.523Z,13.50
2019-05-07T10:26:46.388Z,13.87
2019-05-07T10:29:15.800Z,14.33
2019-05-07T10:31:45.406Z,14.20
2019-05-07T10:34:14.736Z,15.20
2019-05-07T10:36:44.101Z,15.47
2019-05-07T10:39:13.492Z,16.10
2019-05-07T10:41:42.892Z,14.97
2019-05-07T10:44:13.305Z,14.17
2019-05-07T10:47:01.989Z,14.90
2019-05-07T10:49:36.151Z,13.50
2019-05-07T10:52:05.552Z,13.90
2019-05-07T10:54:34.883Z,14.50
2019-05-07T10:57:04.230Z,15.00
2019-05-07T10:59:33.590Z,13.87
2019-05-07T11:04:45.856Z,13.50
2019-05-07T11:07:33.505Z,14.00
2019-05-07T11:13:29.788Z,13.53
2019-05-07T11:16:13.271Z,13.40
2019-05-07T11:21:42.723Z,13.17
2019-05-07T11:24:32.088Z,11.87
2019-05-07T11:27:22.541Z,12.60
2019-05-07T11:30:17.464Z,12.20
2019-05-07T11:32:46.880Z,13.53
2019-05-07T11:35:28.639Z,13.07
2019-05-07T11:38:18.816Z,12.70
2019-05-07T11:40:42.767Z,11.73
2019-05-07T11:43:40.419Z,13.27
2019-05-07T11:46:26.699Z,11.80
2019-05-07T11:49:15.156Z,12.30
2019-05-07T11:54:53.596Z,10.87
2019-05-07T11:57:22.934Z,10.73
2019-05-07T11:59:54.350Z,11.93
2019-05-07T12:02:23.374Z,11.37
2019-05-07T12:04:52.809Z,11.77
2019-05-07T12:07:22.455Z,10.90
2019-05-07T12:09:52.642Z,11.80
2019-05-07T12:12:22.278Z,12.80
2019-05-07T12:14:51.949Z,11.00
2019-05-07T12:17:22.376Z,13.23
2019-05-07T12:19:52.702Z,12.70
2019-05-07T12:22:42.320Z,12.00
2019-05-07T12:25:12.151Z,13.07
2019-05-07T12:27:41.660Z,11.10
2019-05-07T12:30:12.987Z,11.07
2019-05-07T12:33:02.348Z,11.30
2019-05-07T12:35:31.837Z,11.70
2019-05-07T12:38:02.058Z,12.60
2019-05-07T12:40:32.586Z,11.80
2019-05-07T12:43:02.135Z,10.67
2019-05-07T12:45:31.489Z,10.80
2019-05-07T12:48:02.384Z,11.03
2019-05-07T12:50:32.356Z,10.67
2019-05-07T12:53:12.603Z,10.90
2019-05-07T12:55:52.619Z,10.70
2019-05-07T12:58:22.021Z,13.60
2019-05-07T13:00:53.078Z,11.20
2019-05-07T13:03:42.806Z,11.27
2019-05-07T13:06:12.252Z,11.63
2019-05-07T13:08:42.075Z,10.77
2019-05-07T13:11:13.247Z,12.27
2019-05-07T13:13:42.644Z,11.27
2019-05-07T13:16:12.796Z,10.63
2019-05-07T13:18:42.398Z,11.30
2019-05-07T13:21:12.038Z,11.17
2019-05-07T13:23:42.151Z,11.93
2019-05-07T13:26:11.966Z,12.20
2019-05-07T13:28:41.987Z,12.07
2019-05-07T13:31:12.610Z,11.03
2019-05-07T13:33:44.012Z,12.80
2019-05-07T13:36:13.912Z,13.30
2019-05-07T13:38:47.675Z,13.83
2019-05-07T13:41:18.814Z,13.00
2019-05-07T13:44:05.380Z,12.90
2019-05-07T13:46:39.112Z,12.67
2019-05-07T13:49:08.788Z,12.13
2019-05-07T13:51:38.756Z,11.80
2019-05-07T13:54:08.173Z,13.73
2019-05-07T13:56:37.648Z,13.17
2019-05-07T13:59:07.316Z,11.63
2019-05-07T14:01:41.048Z,12.43
2019-05-07T14:04:12.746Z,12.37
2019-05-07T14:06:42.987Z,13.40
2019-05-07T14:09:15.547Z,13.77
2019-05-07T14:11:45.058Z,13.00
2019-05-07T14:14:14.379Z,12.30
2019-05-07T14:16:44.996Z,12.10
2019-05-07T14:19:14.546Z,13.33
2019-05-07T14:21:43.952Z,12.57
2019-05-07T14:24:14.892Z,11.97
2019-05-07T14:26:44.279Z,11.80
2019-05-07T14:29:13.632Z,12.27
2019-05-07T14:31:42.976Z,13.60
2019-05-07T14:34:13.955Z,12.43
2019-05-07T14:36:45.000Z,11.23
2019-05-07T14:39:14.368Z,11.20
2019-05-07T14:41:43.699Z,12.23
2019-05-07T14:44:14.689Z,11.67
2019-05-07T14:46:50.866Z,11.73
2019-05-07T14:49:15.413Z,12.87
2019-05-07T14:51:44.886Z,11.60
2019-05-07T14:54:14.470Z,11.83
2019-05-07T14:56:43.882Z,12.10
2019-05-07T14:59:13.366Z,11.43
2019-05-07T15:01:43.058Z,11.70
2019-05-07T15:04:12.939Z,11.90
2019-05-07T15:06:42.402Z,11.30
2019-05-07T15:09:12.212Z,11.53
2019-05-07T15:11:42.533Z,10.80
2019-05-07T15:14:12.220Z,12.07
2019-05-07T15:16:42.626Z,12.20
2019-05-07T15:19:12.594Z,11.17
2019-05-07T15:21:42.765Z,11.33
2019-05-07T15:24:14.301Z,11.00
2019-05-07T15:26:43.711Z,11.73
2019-05-07T15:29:14.781Z,11.80
2019-05-07T15:32:00.778Z,11.77
2019-05-07T15:34:30.113Z,11.70
2019-05-07T15:37:01.556Z,12.53
2019-05-07T15:39:32.638Z,11.67
2019-05-07T15:42:02.253Z,11.87
2019-05-07T15:44:31.681Z,11.90
2019-05-07T15:47:02.716Z,11.13
2019-05-07T15:49:32.348Z,12.27
2019-05-07T15:52:03.383Z,11.53
2019-05-07T15:54:32.984Z,12.03
2019-05-07T15:57:03.985Z,11.00
2019-05-07T15:59:33.295Z,12.10
2019-05-07T16:02:04.277Z,11.93
2019-05-07T16:04:33.688Z,11.50
2019-05-07T16:07:05.130Z,13.20
2019-05-07T16:09:43.540Z,11.73
2019-05-07T16:12:14.646Z,10.90
2019-05-07T16:14:43.996Z,11.70
2019-05-07T16:17:14.999Z,11.73
2019-05-07T16:19:44.339Z,10.60
2019-05-07T16:22:15.818Z,11.53
2019-05-07T16:24:45.172Z,11.57
2019-05-07T16:27:14.502Z,10.67
2019-05-07T16:29:43.843Z,10.60
2019-05-07T16:32:13.180Z,10.60
2019-05-07T16:34:43.029Z,11.07
2019-05-07T16:37:12.453Z,11.57
2019-05-07T16:39:42.235Z,10.30
2019-05-07T16:42:11.628Z,10.90
2019-05-07T16:44:41.740Z,10.90
2019-05-07T16:47:12.183Z,10.97
2019-05-07T16:49:42.490Z,9.83
2019-05-07T16:52:12.143Z,11.57
2019-05-07T16:54:44.884Z,11.10
2019-05-07T16:57:31.793Z,11.00
2019-05-07T17:00:02.849Z,10.50
2019-05-07T17:02:37.095Z,10.83
2019-05-07T17:05:09.408Z,10.47
2019-05-07T17:07:42.259Z,10.03
2019-05-07T17:10:11.816Z,10.70
2019-05-07T17:12:42.730Z,12.57
2019-05-07T17:15:12.468Z,11.97
2019-05-07T17:17:42.804Z,11.07
2019-05-07T17:20:12.830Z,11.80
2019-05-07T17:22:42.726Z,11.90
2019-05-07T17:25:30.122Z,12.37
2019-05-07T17:27:59.518Z,10.70
2019-05-07T17:30:28.879Z,13.67
2019-05-07T17:32:58.425Z,11.77
2019-05-07T17:35:28.039Z,13.27
2019-05-07T17:38:06.488Z,13.20
2019-05-07T17:40:28.511Z,12.50
2019-05-07T17:42:57.870Z,11.40
2019-05-07T17:45:27.202Z,12.80
2019-05-07T17:47:56.614Z,13.07
2019-05-07T17:50:27.590Z,13.00
2019-05-07T17:52:56.929Z,12.83
2019-05-07T17:55:26.277Z,12.53
2019-05-07T17:57:55.607Z,12.83
2019-05-07T18:00:25.075Z,14.17
2019-05-07T18:03:13.114Z,11.97
2019-05-07T18:05:42.640Z,11.97
2019-05-07T18:08:12.714Z,12.57
2019-05-07T18:10:42.504Z,11.57
2019-05-07T18:13:12.025Z,14.07
2019-05-07T18:15:42.791Z,13.17
2019-05-07T18:18:12.936Z,13.17
2019-05-07T18:20:42.379Z,13.60
2019-05-07T18:23:16.647Z,13.00
2019-05-07T18:25:42.994Z,12.37
2019-05-07T18:28:12.893Z,11.97
2019-05-07T18:30:42.229Z,12.40
2019-05-07T18:33:16.567Z,11.67
2019-05-07T18:35:47.543Z,13.80
2019-05-07T18:38:16.878Z,12.70
2019-05-07T18:40:46.635Z,12.63
2019-05-07T18:43:15.968Z,12.60
2019-05-07T18:45:45.316Z,14.03
2019-05-07T18:48:14.647Z,13.27
2019-05-07T18:50:44.021Z,11.93
2019-05-07T18:53:18.099Z,12.97
2019-05-07T18:55:51.603Z,12.53
2019-05-07T18:58:22.607Z,13.30
2019-05-07T19:00:54.905Z,14.27
2019-05-07T19:03:28.799Z,14.40
2019-05-07T19:06:02.884Z,12.70
2019-05-07T19:08:35.725Z,12.57
2019-05-07T19:11:05.983Z,13.20
2019-05-07T19:13:37.561Z,13.00
2019-05-07T19:16:07.824Z,13.33
2019-05-07T19:18:37.170Z,12.13
2019-05-07T19:21:06.949Z,10.83
2019-05-07T19:23:36.335Z,12.77
2019-05-07T19:26:06.437Z,13.50
2019-05-07T19:28:36.252Z,13.87
2019-05-07T19:31:05.905Z,12.33
2019-05-07T19:33:35.316Z,13.30
2019-05-07T19:36:04.766Z,12.77
2019-05-07T19:38:34.092Z,13.03
2019-05-07T19:41:03.466Z,14.47
2019-05-07T19:43:35.974Z,14.07
2019-05-07T19:46:03.844Z,14.53
2019-05-07T19:48:33.183Z,14.83
2019-05-07T19:51:03.049Z,14.80
2019-05-07T19:53:32.821Z,13.70
2019-05-07T19:56:04.170Z,14.47
2019-05-07T19:58:34.023Z,13.93
2019-05-07T20:01:04.705Z,15.37
2019-05-07T20:03:34.104Z,14.33
2019-05-07T20:06:04.575Z,13.93
2019-05-07T20:08:34.057Z,14.60
2019-05-07T20:11:05.036Z,14.80
2019-05-07T20:13:34.374Z,14.90
2019-05-07T20:16:14.181Z,14.47
2019-05-07T20:18:43.523Z,14.77
2019-05-07T20:21:12.912Z,14.70
2019-05-07T20:23:43.235Z,16.37
2019-05-07T20:26:12.860Z,14.83
2019-05-07T20:28:43.717Z,14.83
2019-05-07T20:31:13.351Z,14.23
2019-05-07T20:33:42.665Z,15.10
2019-05-07T20:36:12.069Z,15.80
2019-05-07T20:38:42.739Z,14.93
2019-05-07T20:41:13.690Z,15.07
2019-05-07T20:43:43.273Z,15.17
2019-05-07T20:46:12.604Z,15.20
2019-05-07T20:48:42.467Z,14.47
2019-05-07T20:51:12.527Z,14.87
2019-05-07T20:54:00.454Z,15.40
2019-05-07T20:56:34.176Z,15.20
2019-05-07T20:59:03.853Z,15.10
2019-05-07T21:01:33.213Z,15.30
2019-05-07T21:04:02.541Z,15.10
2019-05-07T21:06:32.424Z,15.70
2019-05-07T21:09:01.874Z,14.90
2019-05-07T21:11:32.371Z,14.57
2019-05-07T21:14:03.252Z,15.70
2019-05-07T21:16:33.171Z,14.33
2019-05-07T21:19:02.521Z,15.23
2019-05-07T21:21:32.765Z,15.80
2019-05-07T21:24:02.356Z,15.53
2019-05-07T21:26:32.713Z,14.43
2019-05-07T21:29:02.980Z,15.30
2019-05-07T21:31:32.605Z,15.47
2019-05-07T21:34:03.114Z,13.93
2019-05-07T21:36:32.657Z,15.03
2019-05-07T21:39:02.513Z,15.07
2019-05-07T21:41:33.504Z,13.77
2019-05-07T21:44:03.335Z,14.50
2019-05-07T21:46:33.087Z,15.50
2019-05-07T21:49:02.740Z,15.47
2019-05-07T21:51:32.097Z,14.87
2019-05-07T21:54:03.747Z,14.23
2019-05-07T21:56:54.536Z,14.63
2019-05-07T21:59:35.769Z,13.90
2019-05-07T22:02:08.279Z,15.40
2019-05-07T22:04:37.607Z,14.43
2019-05-07T22:07:06.952Z,14.03
2019-05-07T22:09:36.287Z,14.70
2019-05-07T22:12:05.700Z,14.07
2019-05-07T22:14:35.070Z,15.53
2019-05-07T22:17:05.413Z,15.03
2019-05-07T22:19:34.753Z,15.33
2019-05-07T22:22:04.147Z,14.73
2019-05-07T22:24:33.477Z,15.93
2019-05-07T22:27:04.207Z,15.00
2019-05-07T22:29:33.723Z,16.97
2019-05-07T22:32:16.766Z,18.83
2019-05-07T22:34:52.058Z,18.60
2019-05-07T22:37:22.078Z,17.20
2019-05-07T22:39:51.448Z,16.67
2019-05-07T22:42:22.374Z,16.50
2019-05-07T22:44:51.803Z,17.17
2019-05-07T22:47:22.538Z,16.80
2019-05-07T22:49:53.639Z,18.00
2019-05-07T22:52:23.296Z,15.90
2019-05-07T22:54:52.622Z,15.30
2019-05-07T22:57:35.583Z,15.87
2019-05-07T23:00:08.293Z,15.97
2019-05-07T23:02:37.628Z,15.03
2019-05-07T23:05:07.483Z,14.93
2019-05-07T23:07:36.828Z,16.90
2019-05-07T23:10:06.394Z,14.67
2019-05-07T23:12:35.722Z,16.77
2019-05-07T23:15:07.095Z,15.40
2019-05-07T23:17:36.353Z,15.60
2019-05-07T23:20:06.739Z,14.87
2019-05-07T23:22:36.061Z,14.33
2019-05-07T23:25:06.438Z,15.10
2019-05-07T23:27:35.769Z,15.20
2019-05-07T23:30:05.952Z,15.30
2019-05-07T23:32:35.277Z,15.40
2019-05-07T23:35:05.948Z,15.37
2019-05-07T23:37:35.270Z,15.13
2019-05-07T23:40:09.229Z,15.77
2019-05-07T23:42:42.401Z,15.80
2019-05-07T23:45:12.633Z,15.33
2019-05-07T23:47:44.454Z,15.87
2019-05-07T23:50:13.099Z,14.20
2019-05-07T23:52:44.161Z,15.83
2019-05-07T23:55:13.509Z,15.50
2019-05-07T23:57:43.124Z,13.57
